createdAt,value
2022-10-13T00:00:49.573Z,37.10
2022-10-13T00:04:05.776Z,38.10
2022-10-13T00:07:08.619Z,37.60
2022-10-13T00:10:11.572Z,34.40
2022-10-13T00:13:15.030Z,38.20
2022-10-13T00:16:20.651Z,35.30
2022-10-13T00:19:23.422Z,35.70
2022-10-13T00:22:27.712Z,36.30
2022-10-13T00:25:30.543Z,33.30
2022-10-13T00:28:33.438Z,35.30
2022-10-13T00:31:36.338Z,32.80
2022-10-13T00:34:40.392Z,34.60
2022-10-13T00:37:43.209Z,31.10
2022-10-13T00:40:56.365Z,33.60
2022-10-13T00:44:26.874Z,31.40
2022-10-13T00:47:40.718Z,30.80
2022-10-13T00:50:44.189Z,29.10
2022-10-13T00:53:48.471Z,29.90
2022-10-13T00:56:53.536Z,32.80
2022-10-13T00:59:57.035Z,36.60
2022-10-13T01:03:01.018Z,28.20
2022-10-13T01:06:05.781Z,31.90
2022-10-13T01:09:08.626Z,28.80
2022-10-13T01:12:20.187Z,28.90
2022-10-13T01:15:39.702Z,28.60
2022-10-13T01:18:59.876Z,30.70
2022-10-13T01:22:21.420Z,31.80
2022-10-13T01:25:30.393Z,30.80
2022-10-13T01:28:53.409Z,34.60
2022-10-13T01:32:06.245Z,30.10
2022-10-13T01:35:36.002Z,35.10
2022-10-13T01:38:49.803Z,31.20
2022-10-13T01:42:00.867Z,31.40
2022-10-13T01:45:04.494Z,31.10
2022-10-13T01:48:08.897Z,28.60
2022-10-13T01:51:20.739Z,32.90
2022-10-13T01:54:27.132Z,35.60
2022-10-13T01:57:38.241Z,30.40
2022-10-13T02:00:48.824Z,32.10
2022-10-13T02:04:10.553Z,29.60
2022-10-13T02:07:19.858Z,27.10
2022-10-13T02:10:31.045Z,32.10
2022-10-13T02:13:36.833Z,32.30
2022-10-13T02:16:45.439Z,30.10
2022-10-13T02:19:48.571Z,32.80
2022-10-13T02:22:57.939Z,30.30
2022-10-13T02:26:00.999Z,31.60
2022-10-13T02:29:12.475Z,33.20
2022-10-13T02:32:15.372Z,30.40
2022-10-13T02:35:18.558Z,25.10
2022-10-13T02:38:21.545Z,31.00
2022-10-13T02:41:24.704Z,27.50
2022-10-13T02:44:27.586Z,36.30
2022-10-13T02:47:30.538Z,29.80
2022-10-13T02:50:33.405Z,33.60
2022-10-13T02:53:36.230Z,31.00
2022-10-13T02:56:39.098Z,31.90
2022-10-13T02:59:41.918Z,30.30
2022-10-13T03:02:44.710Z,31.20
2022-10-13T03:05:47.587Z,30.20
2022-10-13T03:08:50.718Z,29.10
2022-10-13T03:11:53.818Z,29.90
2022-10-13T03:14:57.504Z,27.70
2022-10-13T03:18:00.329Z,27.80
2022-10-13T03:21:06.490Z,26.30
2022-10-13T03:24:09.500Z,31.10
2022-10-13T03:27:12.533Z,25.20
2022-10-13T03:30:15.414Z,25.20
2022-10-13T03:33:18.297Z,29.90
2022-10-13T03:36:21.122Z,30.40
2022-10-13T03:39:25.397Z,28.20
2022-10-13T03:42:28.221Z,26.50
2022-10-13T03:45:31.436Z,27.90
2022-10-13T03:48:36.170Z,25.20
2022-10-13T03:51:39.819Z,31.90
2022-10-13T03:54:42.619Z,31.10
2022-10-13T03:57:45.480Z,27.80
2022-10-13T04:00:48.440Z,35.40
2022-10-13T04:03:54.316Z,31.30
2022-10-13T04:06:57.587Z,30.90
2022-10-13T04:10:00.434Z,32.30
2022-10-13T04:13:05.672Z,30.00
2022-10-13T04:16:18.938Z,25.50
2022-10-13T04:19:21.887Z,30.40
2022-10-13T04:22:24.694Z,32.00
2022-10-13T04:25:27.604Z,32.50
2022-10-13T04:28:30.636Z,29.20
2022-10-13T04:31:34.370Z,32.80
2022-10-13T04:34:37.407Z,31.70
2022-10-13T04:37:44.974Z,28.50
2022-10-13T04:40:48.324Z,33.60
2022-10-13T04:43:52.276Z,33.10
2022-10-13T04:46:55.486Z,30.20
2022-10-13T04:49:58.275Z,25.80
2022-10-13T04:53:01.146Z,29.50
2022-10-13T04:56:09.671Z,31.50
2022-10-13T04:59:12.641Z,30.40
2022-10-13T05:02:15.540Z,32.50
2022-10-13T05:05:18.444Z,35.00
2022-10-13T05:08:21.718Z,36.50
2022-10-13T05:11:26.631Z,32.00
2022-10-13T05:14:31.110Z,33.20
2022-10-13T05:17:36.288Z,32.20
2022-10-13T05:20:44.019Z,30.40
2022-10-13T05:23:47.123Z,32.00
2022-10-13T05:26:49.924Z,32.50
2022-10-13T05:29:52.782Z,31.60
2022-10-13T05:32:55.713Z,32.00
2022-10-13T05:36:15.078Z,31.70
2022-10-13T05:39:18.004Z,30.00
2022-10-13T05:42:21.191Z,34.20
2022-10-13T05:45:24.485Z,33.00
2022-10-13T05:48:27.979Z,33.80
2022-10-13T05:51:37.196Z,29.70
2022-10-13T05:54:46.200Z,39.60
2022-10-13T05:57:52.268Z,33.40
2022-10-13T06:00:55.798Z,34.20
2022-10-13T06:04:03.996Z,37.60
2022-10-13T06:07:08.407Z,36.40
2022-10-13T06:10:11.931Z,33.30
2022-10-13T06:13:14.831Z,35.60
2022-10-13T06:16:17.908Z,40.10
2022-10-13T06:19:21.835Z,39.40
2022-10-13T06:22:24.709Z,37.80
2022-10-13T06:25:27.557Z,37.60
2022-10-13T06:28:30.400Z,36.00
2022-10-13T06:31:33.269Z,34.70
2022-10-13T06:34:36.055Z,34.90
2022-10-13T06:37:39.198Z,37.60
2022-10-13T06:40:46.172Z,33.80
2022-10-13T06:43:49.626Z,34.70
2022-10-13T06:46:53.054Z,39.10
2022-10-13T06:49:56.379Z,39.30
2022-10-13T06:52:59.439Z,38.20
2022-10-13T06:56:04.570Z,42.60
2022-10-13T06:59:07.446Z,39.70
2022-10-13T07:02:11.422Z,33.30
2022-10-13T07:05:14.370Z,32.40
2022-10-13T07:08:17.888Z,33.30
2022-10-13T07:11:20.890Z,36.70
2022-10-13T07:14:27.532Z,43.80
2022-10-13T07:17:30.314Z,40.00
2022-10-13T07:20:33.758Z,35.70
2022-10-13T07:23:36.560Z,39.50
2022-10-13T07:26:39.330Z,40.90
2022-10-13T07:29:42.240Z,34.00
2022-10-13T07:32:45.131Z,34.20
2022-10-13T07:35:47.925Z,37.20
2022-10-13T07:38:50.833Z,36.10
2022-10-13T07:41:53.741Z,40.70
2022-10-13T07:44:56.621Z,40.80
2022-10-13T07:48:01.851Z,36.60
2022-10-13T07:51:07.542Z,36.70
2022-10-13T07:54:11.030Z,41.10
2022-10-13T07:57:14.101Z,39.40
2022-10-13T08:00:17.527Z,40.50
2022-10-13T08:03:20.377Z,40.20
2022-10-13T08:06:23.305Z,38.60
2022-10-13T08:09:29.991Z,39.00
2022-10-13T08:12:35.475Z,43.00
2022-10-13T08:15:42.868Z,42.20
2022-10-13T08:18:46.419Z,42.50
2022-10-13T08:21:58.317Z,45.00
2022-10-13T08:25:02.507Z,43.40
2022-10-13T08:28:22.982Z,39.40
2022-10-13T08:31:29.064Z,36.60
2022-10-13T08:34:34.031Z,35.50
2022-10-13T08:37:36.982Z,40.70
2022-10-13T08:40:39.939Z,40.20
2022-10-13T08:44:24.759Z,41.10
2022-10-13T08:47:48.306Z,42.20
2022-10-13T08:50:54.971Z,40.40
2022-10-13T08:53:59.220Z,48.60
2022-10-13T08:57:02.072Z,46.70
2022-10-13T09:00:07.257Z,49.50
2022-10-13T09:03:29.043Z,53.40
2022-10-13T09:06:36.827Z,44.10
2022-10-13T09:09:40.099Z,50.30
2022-10-13T09:12:42.987Z,43.50
2022-10-13T09:15:50.318Z,44.80
2022-10-13T09:18:53.116Z,42.60
2022-10-13T09:22:13.127Z,49.40
2022-10-13T09:25:20.056Z,45.70
2022-10-13T09:28:27.669Z,35.60
2022-10-13T09:31:32.312Z,41.20
2022-10-13T09:34:35.116Z,48.70
2022-10-13T09:37:41.627Z,41.20
2022-10-13T09:40:58.036Z,37.60
2022-10-13T09:44:11.745Z,48.30
2022-10-13T09:47:21.674Z,44.20
2022-10-13T09:50:27.813Z,43.40
2022-10-13T09:53:37.786Z,34.70
2022-10-13T09:56:49.347Z,30.50
2022-10-13T09:59:58.934Z,31.40
2022-10-13T10:03:10.712Z,32.70
2022-10-13T10:06:15.891Z,25.40
2022-10-13T10:09:41.590Z,29.60
2022-10-13T10:12:45.309Z,27.80
2022-10-13T10:16:20.714Z,31.80
2022-10-13T10:19:55.387Z,29.00
2022-10-13T10:23:11.234Z,29.40
2022-10-13T10:26:20.750Z,27.50
2022-10-13T10:29:39.054Z,29.00
2022-10-13T10:33:07.901Z,30.30
2022-10-13T10:36:19.913Z,25.90
2022-10-13T10:39:41.378Z,28.40
2022-10-13T10:42:58.994Z,30.40
2022-10-13T10:46:01.856Z,30.40
2022-10-13T10:49:35.173Z,31.90
2022-10-13T10:53:00.891Z,23.50
2022-10-13T10:56:07.789Z,24.40
2022-10-13T10:59:37.270Z,24.70
2022-10-13T11:02:55.308Z,24.60
2022-10-13T11:06:20.863Z,25.40
2022-10-13T11:09:42.745Z,28.00
2022-10-13T11:13:26.927Z,20.70
2022-10-13T11:16:40.103Z,19.20
2022-10-13T11:19:49.682Z,20.40
2022-10-13T11:22:58.522Z,24.70
2022-10-13T11:26:20.709Z,21.30
2022-10-13T11:29:51.523Z,18.00
2022-10-13T11:32:57.129Z,15.60
2022-10-13T11:36:27.728Z,15.60
2022-10-13T11:39:59.576Z,17.70
2022-10-13T11:43:37.348Z,18.90
2022-10-13T11:46:52.423Z,18.00
2022-10-13T11:50:04.285Z,21.20
2022-10-13T11:53:11.956Z,21.20
2022-10-13T11:56:31.871Z,15.80
2022-10-13T11:59:37.674Z,17.20
2022-10-13T12:02:49.111Z,18.00
2022-10-13T12:05:53.580Z,20.00
2022-10-13T12:08:56.434Z,19.90
2022-10-13T12:12:13.213Z,16.10
2022-10-13T12:15:31.196Z,12.50
2022-10-13T12:18:38.374Z,13.00
2022-10-13T12:21:56.329Z,12.20
2022-10-13T12:25:05.356Z,13.70
2022-10-13T12:28:19.250Z,14.20
2022-10-13T12:31:27.773Z,12.90
2022-10-13T12:34:34.526Z,14.20
2022-10-13T12:37:37.452Z,12.80
2022-10-13T12:40:40.599Z,15.40
2022-10-13T12:43:44.691Z,14.70
2022-10-13T12:46:53.476Z,14.70
2022-10-13T12:50:23.676Z,12.20
2022-10-13T12:53:28.829Z,13.20
2022-10-13T12:56:32.505Z,13.10
2022-10-13T12:59:43.049Z,10.70
2022-10-13T13:03:04.030Z,11.50
2022-10-13T13:06:13.435Z,15.00
2022-10-13T13:09:22.228Z,13.70
2022-10-13T13:12:28.028Z,15.80
2022-10-13T13:15:36.379Z,21.10
2022-10-13T13:18:41.794Z,14.50
2022-10-13T13:21:44.722Z,16.80
2022-10-13T13:24:49.444Z,15.40
2022-10-13T13:27:53.088Z,15.70
2022-10-13T13:30:55.856Z,17.30
2022-10-13T13:33:58.581Z,17.50
2022-10-13T13:37:02.638Z,18.00
2022-10-13T13:40:07.392Z,18.60
2022-10-13T13:43:10.125Z,19.90
2022-10-13T13:46:17.232Z,19.10
2022-10-13T13:49:19.987Z,21.40
2022-10-13T13:52:25.340Z,21.80
2022-10-13T13:55:29.665Z,18.70
2022-10-13T13:58:32.429Z,18.60
2022-10-13T14:01:35.794Z,17.80
2022-10-13T14:04:38.562Z,18.90
2022-10-13T14:07:41.440Z,20.10
2022-10-13T14:10:44.297Z,20.60
2022-10-13T14:13:48.085Z,19.90
2022-10-13T14:16:52.719Z,20.50
2022-10-13T14:19:55.608Z,19.40
2022-10-13T14:22:58.370Z,18.30
2022-10-13T14:26:05.914Z,20.50
2022-10-13T14:29:08.731Z,22.60
2022-10-13T14:32:12.176Z,23.00
2022-10-13T14:35:15.025Z,19.90
2022-10-13T14:38:18.250Z,19.90
2022-10-13T14:41:24.419Z,18.40
2022-10-13T14:44:27.217Z,21.00
2022-10-13T14:47:29.949Z,22.10
2022-10-13T14:50:32.765Z,19.60
2022-10-13T14:53:41.429Z,19.60
2022-10-13T14:56:44.915Z,23.70
2022-10-13T14:59:47.753Z,19.90
2022-10-13T15:02:50.528Z,23.20
2022-10-13T15:05:54.187Z,22.60
2022-10-13T15:08:59.461Z,23.30
2022-10-13T15:12:02.764Z,24.10
2022-10-13T15:15:05.991Z,25.30
2022-10-13T15:18:08.727Z,23.10
2022-10-13T15:21:12.148Z,24.30
2022-10-13T15:24:14.916Z,25.70
2022-10-13T15:27:18.281Z,28.60
2022-10-13T15:30:21.049Z,28.80
2022-10-13T15:33:23.900Z,27.70
2022-10-13T15:36:26.724Z,31.50
2022-10-13T15:39:29.589Z,31.70
2022-10-13T15:42:32.692Z,32.80
2022-10-13T15:45:36.038Z,35.10
2022-10-13T15:48:39.312Z,33.40
2022-10-13T15:51:42.173Z,38.50
2022-10-13T15:54:45.072Z,37.50
2022-10-13T15:57:47.946Z,38.70
2022-10-13T16:00:50.736Z,37.10
2022-10-13T16:03:55.245Z,44.30
2022-10-13T16:06:57.993Z,43.50
2022-10-13T16:10:00.990Z,37.50
2022-10-13T16:13:03.917Z,47.10
2022-10-13T16:16:07.604Z,40.30
2022-10-13T16:19:10.482Z,39.40
2022-10-13T16:22:13.567Z,41.10
2022-10-13T16:25:16.795Z,35.90
2022-10-13T16:28:19.718Z,38.00
2022-10-13T16:31:22.769Z,40.40
2022-10-13T16:34:26.108Z,37.90
2022-10-13T16:37:28.926Z,42.20
2022-10-13T16:40:32.477Z,48.80
2022-10-13T16:43:35.760Z,43.80
2022-10-13T16:46:38.814Z,48.00
2022-10-13T16:49:41.992Z,53.00
2022-10-13T16:52:47.256Z,56.20
2022-10-13T16:55:50.262Z,54.10
2022-10-13T16:58:55.679Z,51.30
2022-10-13T17:01:59.443Z,50.80
2022-10-13T17:05:02.382Z,53.50
2022-10-13T17:08:06.464Z,57.10
2022-10-13T17:11:15.706Z,55.10
2022-10-13T17:14:18.648Z,58.20
2022-10-13T17:17:21.732Z,57.90
2022-10-13T17:20:24.880Z,54.50
2022-10-13T17:23:29.262Z,59.10
2022-10-13T17:26:32.489Z,63.80
2022-10-13T17:29:35.276Z,57.40
2022-10-13T17:32:38.913Z,57.20
2022-10-13T17:35:41.757Z,61.10
2022-10-13T17:38:45.255Z,64.10
2022-10-13T17:41:48.133Z,61.60
2022-10-13T17:44:51.059Z,64.10
2022-10-13T17:47:53.943Z,65.80
2022-10-13T17:51:02.732Z,64.90
2022-10-13T17:54:08.233Z,68.40
2022-10-13T17:57:14.510Z,79.20
2022-10-13T18:00:18.095Z,78.70
2022-10-13T18:03:21.552Z,78.20
2022-10-13T18:06:24.485Z,85.50
2022-10-13T18:09:27.326Z,84.50
2022-10-13T18:12:30.117Z,83.70
2022-10-13T18:15:36.876Z,88.30
2022-10-13T18:18:39.876Z,92.90
2022-10-13T18:21:43.046Z,86.10
2022-10-13T18:24:46.347Z,86.10
2022-10-13T18:27:49.205Z,87.60
2022-10-13T18:30:52.051Z,82.60
2022-10-13T18:34:00.678Z,80.20
2022-10-13T18:37:05.656Z,74.30
2022-10-13T18:40:09.003Z,81.40
2022-10-13T18:43:11.848Z,84.90
2022-10-13T18:46:14.836Z,81.40
2022-10-13T18:49:20.608Z,82.50
2022-10-13T18:52:23.507Z,82.90
2022-10-13T18:55:26.404Z,84.10
2022-10-13T18:58:30.549Z,86.50
2022-10-13T19:01:35.139Z,88.50
2022-10-13T19:04:38.312Z,93.40
2022-10-13T19:07:41.345Z,87.00
2022-10-13T19:10:44.180Z,77.50
2022-10-13T19:13:48.369Z,80.40
2022-10-13T19:16:51.312Z,82.70
2022-10-13T19:19:56.352Z,88.00
2022-10-13T19:22:59.222Z,91.20
2022-10-13T19:26:15.254Z,97.20
2022-10-13T19:29:18.417Z,110.00
2022-10-13T19:32:21.357Z,100.30
2022-10-13T19:35:24.300Z,93.90
2022-10-13T19:38:27.361Z,85.10
2022-10-13T19:41:32.349Z,71.50
2022-10-13T19:44:35.376Z,71.80
2022-10-13T19:47:38.373Z,44.30
2022-10-13T19:50:44.138Z,45.30
2022-10-13T19:53:49.484Z,50.60
2022-10-13T19:56:52.534Z,50.30
2022-10-13T19:59:55.444Z,54.10
2022-10-13T20:02:58.362Z,57.80
2022-10-13T20:06:05.845Z,50.30
2022-10-13T20:09:14.705Z,47.60
2022-10-13T20:12:17.598Z,50.50
2022-10-13T20:15:20.623Z,49.20
2022-10-13T20:18:24.040Z,49.60
2022-10-13T20:21:27.749Z,48.10
2022-10-13T20:24:30.659Z,52.00
2022-10-13T20:27:34.037Z,52.50
2022-10-13T20:30:39.468Z,47.80
2022-10-13T20:33:43.401Z,48.90
2022-10-13T20:36:46.314Z,49.60
2022-10-13T20:39:49.199Z,38.40
2022-10-13T20:42:52.716Z,43.70
2022-10-13T20:46:01.254Z,43.60
2022-10-13T20:49:13.073Z,43.70
2022-10-13T20:52:16.571Z,39.50
2022-10-13T20:55:22.366Z,42.40
2022-10-13T20:58:29.879Z,37.20
2022-10-13T21:01:34.681Z,37.20
2022-10-13T21:04:37.620Z,39.90
2022-10-13T21:07:40.932Z,37.10
2022-10-13T21:10:45.265Z,38.00
2022-10-13T21:13:49.653Z,37.00
2022-10-13T21:16:54.226Z,34.00
2022-10-13T21:19:58.309Z,33.90
2022-10-13T21:23:02.218Z,36.50
2022-10-13T21:26:06.877Z,38.80
2022-10-13T21:29:10.072Z,33.60
2022-10-13T21:32:13.034Z,30.90
2022-10-13T21:35:16.597Z,37.70
2022-10-13T21:38:19.520Z,36.80
2022-10-13T21:41:23.562Z,36.10
2022-10-13T21:44:27.932Z,42.00
2022-10-13T21:47:32.500Z,37.00
2022-10-13T21:50:35.612Z,40.00
2022-10-13T21:53:38.445Z,39.00
2022-10-13T21:56:42.428Z,42.20
2022-10-13T21:59:45.668Z,41.30
2022-10-13T22:02:48.533Z,39.20
2022-10-13T22:05:56.408Z,40.60
2022-10-13T22:09:02.460Z,38.90
2022-10-13T22:12:05.690Z,45.90
2022-10-13T22:15:08.902Z,45.60
2022-10-13T22:18:11.768Z,44.90
2022-10-13T22:21:20.750Z,43.40
2022-10-13T22:24:23.616Z,43.40
2022-10-13T22:27:26.501Z,43.80
2022-10-13T22:30:29.389Z,49.80
2022-10-13T22:33:33.728Z,49.90
2022-10-13T22:36:39.920Z,42.90
2022-10-13T22:39:45.314Z,48.00
2022-10-13T22:42:49.440Z,47.30
2022-10-13T22:45:52.428Z,46.20
2022-10-13T22:48:56.369Z,48.30
2022-10-13T22:51:59.588Z,49.30
2022-10-13T22:55:02.446Z,43.90
2022-10-13T22:58:08.380Z,43.10
2022-10-13T23:01:15.170Z,44.70
2022-10-13T23:04:17.994Z,46.60
2022-10-13T23:07:21.425Z,49.50
2022-10-13T23:10:24.598Z,45.90
2022-10-13T23:13:27.462Z,47.20
2022-10-13T23:16:33.092Z,44.10
2022-10-13T23:19:36.528Z,51.80
2022-10-13T23:22:39.613Z,50.30
2022-10-13T23:25:42.491Z,49.30
2022-10-13T23:28:45.405Z,48.70
2022-10-13T23:31:48.349Z,52.80
2022-10-13T23:34:51.245Z,53.40
2022-10-13T23:37:55.851Z,52.40
2022-10-13T23:41:08.200Z,58.60
2022-10-13T23:44:12.370Z,59.70
2022-10-13T23:47:15.266Z,56.70
2022-10-13T23:50:18.108Z,55.50
2022-10-13T23:53:21.625Z,59.80
2022-10-13T23:56:25.348Z,51.90
2022-10-13T23:59:28.230Z,53.90
